sensor_id;sensor_type;location;lat;lon;timestamp;P1;durP1;ratioP1;P2;durP2;ratioP2
27225;SDS011;14732;51.074;3.788;2022-12-07T00:00:53;15.10;;;9.07;;
27225;SDS011;14732;51.074;3.788;2022-12-07T00:03:20;16.17;;;8.75;;
27225;SDS011;14732;51.074;3.788;2022-12-07T00:05:45;16.30;;;8.60;;
27225;SDS011;14732;51.074;3.788;2022-12-07T00:08:11;13.23;;;8.05;;
27225;SDS011;14732;51.074;3.788;2022-12-07T00:10:37;18.30;;;8.57;;
27225;SDS011;14732;51.074;3.788;2022-12-07T00:13:02;13.27;;;8.23;;
27225;SDS011;14732;51.074;3.788;2022-12-07T00:15:28;12.63;;;7.90;;
27225;SDS011;14732;51.074;3.788;2022-12-07T00:17:54;10.60;;;7.50;;
27225;SDS011;14732;51.074;3.788;2022-12-07T00:20:19;11.68;;;7.53;;
27225;SDS011;14732;51.074;3.788;2022-12-07T00:22:45;10.25;;;6.82;;
27225;SDS011;14732;51.074;3.788;2022-12-07T00:25:11;13.55;;;7.35;;
27225;SDS011;14732;51.074;3.788;2022-12-07T00:27:36;11.43;;;7.75;;
27225;SDS011;14732;51.074;3.788;2022-12-07T00:30:02;11.23;;;7.55;;
27225;SDS011;14732;51.074;3.788;2022-12-07T00:32:28;12.55;;;7.88;;
27225;SDS011;14732;51.074;3.788;2022-12-07T00:34:53;11.82;;;7.25;;
27225;SDS011;14732;51.074;3.788;2022-12-07T00:37:19;12.02;;;8.13;;
27225;SDS011;14732;51.074;3.788;2022-12-07T00:39:45;13.02;;;7.45;;
27225;SDS011;14732;51.074;3.788;2022-12-07T00:42:11;13.93;;;7.18;;
27225;SDS011;14732;51.074;3.788;2022-12-07T00:44:36;13.75;;;8.02;;
27225;SDS011;14732;51.074;3.788;2022-12-07T00:47:02;9.15;;;7.00;;
27225;SDS011;14732;51.074;3.788;2022-12-07T00:49:28;12.52;;;6.68;;
27225;SDS011;14732;51.074;3.788;2022-12-07T00:51:53;15.00;;;6.55;;
27225;SDS011;14732;51.074;3.788;2022-12-07T00:54:19;9.80;;;6.70;;
27225;SDS011;14732;51.074;3.788;2022-12-07T00:56:45;13.27;;;6.60;;
27225;SDS011;14732;51.074;3.788;2022-12-07T00:59:11;11.82;;;6.45;;
27225;SDS011;14732;51.074;3.788;2022-12-07T01:01:42;11.82;;;6.60;;
27225;SDS011;14732;51.074;3.788;2022-12-07T01:04:08;10.40;;;6.70;;
27225;SDS011;14732;51.074;3.788;2022-12-07T01:06:34;13.30;;;7.22;;
27225;SDS011;14732;51.074;3.788;2022-12-07T01:08:59;11.15;;;6.82;;
27225;SDS011;14732;51.074;3.788;2022-12-07T01:11:27;12.63;;;6.78;;
27225;SDS011;14732;51.074;3.788;2022-12-07T01:13:54;10.30;;;5.95;;
27225;SDS011;14732;51.074;3.788;2022-12-07T01:16:22;11.23;;;5.55;;
27225;SDS011;14732;51.074;3.788;2022-12-07T01:18:49;8.45;;;5.60;;
27225;SDS011;14732;51.074;3.788;2022-12-07T01:21:17;11.93;;;5.40;;
27225;SDS011;14732;51.074;3.788;2022-12-07T01:23:47;10.15;;;5.07;;
27225;SDS011;14732;51.074;3.788;2022-12-07T01:26:15;9.85;;;4.07;;
27225;SDS011;14732;51.074;3.788;2022-12-07T01:28:43;8.02;;;4.30;;
27225;SDS011;14732;51.074;3.788;2022-12-07T01:31:10;7.75;;;4.15;;
27225;SDS011;14732;51.074;3.788;2022-12-07T01:33:39;5.72;;;3.78;;
27225;SDS011;14732;51.074;3.788;2022-12-07T01:36:07;7.65;;;3.72;;
27225;SDS011;14732;51.074;3.788;2022-12-07T01:38:44;7.72;;;4.10;;
27225;SDS011;14732;51.074;3.788;2022-12-07T01:41:11;6.40;;;3.25;;
27225;SDS011;14732;51.074;3.788;2022-12-07T01:44:06;7.35;;;3.38;;
27225;SDS011;14732;51.074;3.788;2022-12-07T01:46:37;6.50;;;3.22;;
27225;SDS011;14732;51.074;3.788;2022-12-07T01:49:04;7.88;;;3.17;;
27225;SDS011;14732;51.074;3.788;2022-12-07T01:51:34;6.75;;;3.42;;
27225;SDS011;14732;51.074;3.788;2022-12-07T01:54:02;6.43;;;3.22;;
27225;SDS011;14732;51.074;3.788;2022-12-07T01:56:28;9.80;;;3.83;;
27225;SDS011;14732;51.074;3.788;2022-12-07T01:58:56;11.77;;;3.58;;
27225;SDS011;14732;51.074;3.788;2022-12-07T02:01:23;7.97;;;3.47;;
27225;SDS011;14732;51.074;3.788;2022-12-07T02:03:49;9.40;;;3.83;;
27225;SDS011;14732;51.074;3.788;2022-12-07T02:06:16;9.63;;;4.10;;
27225;SDS011;14732;51.074;3.788;2022-12-07T02:08:45;7.40;;;3.95;;
27225;SDS011;14732;51.074;3.788;2022-12-07T02:11:12;6.43;;;3.83;;
27225;SDS011;14732;51.074;3.788;2022-12-07T02:13:38;10.98;;;4.15;;
27225;SDS011;14732;51.074;3.788;2022-12-07T02:18:49;8.35;;;4.40;;
27225;SDS011;14732;51.074;3.788;2022-12-07T02:24:00;13.35;;;4.45;;
27225;SDS011;14732;51.074;3.788;2022-12-07T02:26:40;9.52;;;4.40;;
27225;SDS011;14732;51.074;3.788;2022-12-07T02:37:00;8.13;;;4.68;;
27225;SDS011;14732;51.074;3.788;2022-12-07T02:39:43;7.45;;;4.30;;
27225;SDS011;14732;51.074;3.788;2022-12-07T02:42:20;11.02;;;4.60;;
27225;SDS011;14732;51.074;3.788;2022-12-07T02:44:56;7.68;;;4.38;;
27225;SDS011;14732;51.074;3.788;2022-12-07T02:47:23;8.27;;;4.43;;
27225;SDS011;14732;51.074;3.788;2022-12-07T02:49:51;9.75;;;4.53;;
27225;SDS011;14732;51.074;3.788;2022-12-07T02:52:17;8.85;;;4.40;;
27225;SDS011;14732;51.074;3.788;2022-12-07T02:54:42;6.78;;;4.32;;
27225;SDS011;14732;51.074;3.788;2022-12-07T02:57:19;6.47;;;4.50;;
27225;SDS011;14732;51.074;3.788;2022-12-07T03:08:13;11.48;;;4.65;;
27225;SDS011;14732;51.074;3.788;2022-12-07T03:21:46;12.15;;;4.97;;
27225;SDS011;14732;51.074;3.788;2022-12-07T03:24:17;11.15;;;4.32;;
27225;SDS011;14732;51.074;3.788;2022-12-07T03:26:47;7.93;;;4.72;;
27225;SDS011;14732;51.074;3.788;2022-12-07T03:29:26;11.30;;;5.07;;
27225;SDS011;14732;51.074;3.788;2022-12-07T03:32:08;12.02;;;4.60;;
27225;SDS011;14732;51.074;3.788;2022-12-07T03:34:44;13.63;;;4.75;;
27225;SDS011;14732;51.074;3.788;2022-12-07T03:37:24;11.63;;;4.60;;
27225;SDS011;14732;51.074;3.788;2022-12-07T03:42:31;8.70;;;4.75;;
27225;SDS011;14732;51.074;3.788;2022-12-07T03:44:58;10.05;;;4.30;;
27225;SDS011;14732;51.074;3.788;2022-12-07T03:50:14;5.35;;;3.85;;
27225;SDS011;14732;51.074;3.788;2022-12-07T03:53:34;6.50;;;4.40;;
27225;SDS011;14732;51.074;3.788;2022-12-07T03:56:00;14.23;;;5.03;;
27225;SDS011;14732;51.074;3.788;2022-12-07T03:58:27;6.82;;;4.32;;
27225;SDS011;14732;51.074;3.788;2022-12-07T04:00:54;7.50;;;4.30;;
27225;SDS011;14732;51.074;3.788;2022-12-07T04:03:20;5.20;;;3.90;;
27225;SDS011;14732;51.074;3.788;2022-12-07T04:05:46;4.95;;;3.40;;
27225;SDS011;14732;51.074;3.788;2022-12-07T04:08:12;5.45;;;3.28;;
27225;SDS011;14732;51.074;3.788;2022-12-07T04:10:37;6.78;;;4.20;;
27225;SDS011;14732;51.074;3.788;2022-12-07T04:13:03;7.95;;;3.75;;
27225;SDS011;14732;51.074;3.788;2022-12-07T04:15:29;6.40;;;3.33;;
27225;SDS011;14732;51.074;3.788;2022-12-07T04:17:55;6.68;;;3.50;;
27225;SDS011;14732;51.074;3.788;2022-12-07T04:20:21;6.30;;;3.25;;
27225;SDS011;14732;51.074;3.788;2022-12-07T04:22:46;6.57;;;3.65;;
27225;SDS011;14732;51.074;3.788;2022-12-07T04:25:12;6.10;;;3.35;;
27225;SDS011;14732;51.074;3.788;2022-12-07T04:27:38;5.63;;;3.45;;
27225;SDS011;14732;51.074;3.788;2022-12-07T04:30:04;6.22;;;3.58;;
27225;SDS011;14732;51.074;3.788;2022-12-07T04:32:30;6.88;;;3.70;;
27225;SDS011;14732;51.074;3.788;2022-12-07T04:34:55;7.03;;;3.50;;
27225;SDS011;14732;51.074;3.788;2022-12-07T04:37:21;6.25;;;3.35;;
27225;SDS011;14732;51.074;3.788;2022-12-07T04:39:48;9.13;;;3.78;;
27225;SDS011;14732;51.074;3.788;2022-12-07T04:42:13;9.50;;;4.05;;
27225;SDS011;14732;51.074;3.788;2022-12-07T04:44:39;5.97;;;3.65;;
27225;SDS011;14732;51.074;3.788;2022-12-07T04:47:04;6.47;;;3.80;;
27225;SDS011;14732;51.074;3.788;2022-12-07T04:49:30;9.05;;;4.18;;
27225;SDS011;14732;51.074;3.788;2022-12-07T04:51:56;6.30;;;3.80;;
27225;SDS011;14732;51.074;3.788;2022-12-07T04:54:21;5.85;;;3.35;;
27225;SDS011;14732;51.074;3.788;2022-12-07T04:56:48;9.80;;;3.80;;
27225;SDS011;14732;51.074;3.788;2022-12-07T04:59:14;7.88;;;3.83;;
27225;SDS011;14732;51.074;3.788;2022-12-07T05:01:41;7.05;;;3.05;;
27225;SDS011;14732;51.074;3.788;2022-12-07T05:04:07;9.20;;;2.75;;
27225;SDS011;14732;51.074;3.788;2022-12-07T05:06:33;9.75;;;3.45;;
27225;SDS011;14732;51.074;3.788;2022-12-07T05:08:59;9.25;;;3.42;;
27225;SDS011;14732;51.074;3.788;2022-12-07T05:11:25;5.82;;;3.25;;
27225;SDS011;14732;51.074;3.788;2022-12-07T05:14:07;11.13;;;3.22;;
27225;SDS011;14732;51.074;3.788;2022-12-07T05:16:36;6.47;;;3.33;;
27225;SDS011;14732;51.074;3.788;2022-12-07T05:19:02;7.35;;;3.50;;
27225;SDS011;14732;51.074;3.788;2022-12-07T05:21:28;19.85;;;7.63;;
27225;SDS011;14732;51.074;3.788;2022-12-07T05:23:54;10.98;;;6.10;;
27225;SDS011;14732;51.074;3.788;2022-12-07T05:26:20;9.93;;;4.75;;
27225;SDS011;14732;51.074;3.788;2022-12-07T05:28:49;10.38;;;4.85;;
27225;SDS011;14732;51.074;3.788;2022-12-07T05:31:15;10.48;;;4.32;;
27225;SDS011;14732;51.074;3.788;2022-12-07T05:33:41;6.97;;;3.63;;
27225;SDS011;14732;51.074;3.788;2022-12-07T05:36:07;7.97;;;3.30;;
27225;SDS011;14732;51.074;3.788;2022-12-07T05:38:32;5.38;;;3.05;;
27225;SDS011;14732;51.074;3.788;2022-12-07T05:41:02;6.88;;;3.03;;
27225;SDS011;14732;51.074;3.788;2022-12-07T05:43:28;11.38;;;2.80;;
27225;SDS011;14732;51.074;3.788;2022-12-07T05:45:54;8.15;;;2.90;;
27225;SDS011;14732;51.074;3.788;2022-12-07T05:48:20;7.38;;;3.03;;
27225;SDS011;14732;51.074;3.788;2022-12-07T05:50:49;9.60;;;2.88;;
27225;SDS011;14732;51.074;3.788;2022-12-07T05:53:15;9.27;;;3.10;;
27225;SDS011;14732;51.074;3.788;2022-12-07T05:55:41;4.30;;;2.45;;
27225;SDS011;14732;51.074;3.788;2022-12-07T05:58:07;6.97;;;2.67;;
27225;SDS011;14732;51.074;3.788;2022-12-07T06:00:53;8.40;;;2.80;;
27225;SDS011;14732;51.074;3.788;2022-12-07T06:03:22;8.15;;;2.95;;
27225;SDS011;14732;51.074;3.788;2022-12-07T06:05:48;5.70;;;2.80;;
27225;SDS011;14732;51.074;3.788;2022-12-07T06:08:13;5.45;;;2.83;;
27225;SDS011;14732;51.074;3.788;2022-12-07T06:10:40;8.55;;;2.80;;
27225;SDS011;14732;51.074;3.788;2022-12-07T06:13:07;7.47;;;2.88;;
27225;SDS011;14732;51.074;3.788;2022-12-07T06:15:35;7.75;;;2.85;;
27225;SDS011;14732;51.074;3.788;2022-12-07T06:18:01;7.85;;;2.70;;
27225;SDS011;14732;51.074;3.788;2022-12-07T06:20:27;6.88;;;3.00;;
27225;SDS011;14732;51.074;3.788;2022-12-07T06:22:52;5.72;;;2.75;;
27225;SDS011;14732;51.074;3.788;2022-12-07T06:25:18;6.47;;;3.33;;
27225;SDS011;14732;51.074;3.788;2022-12-07T06:27:44;6.70;;;3.25;;
27225;SDS011;14732;51.074;3.788;2022-12-07T06:30:09;5.70;;;3.08;;
27225;SDS011;14732;51.074;3.788;2022-12-07T06:32:36;11.63;;;3.13;;
27225;SDS011;14732;51.074;3.788;2022-12-07T06:35:03;10.60;;;3.10;;
27225;SDS011;14732;51.074;3.788;2022-12-07T06:37:29;6.18;;;2.72;;
27225;SDS011;14732;51.074;3.788;2022-12-07T06:39:54;6.38;;;3.05;;
27225;SDS011;14732;51.074;3.788;2022-12-07T06:42:21;5.68;;;2.80;;
27225;SDS011;14732;51.074;3.788;2022-12-07T06:44:46;7.35;;;3.05;;
27225;SDS011;14732;51.074;3.788;2022-12-07T06:47:12;9.65;;;3.63;;
27225;SDS011;14732;51.074;3.788;2022-12-07T06:49:38;6.28;;;2.97;;
27225;SDS011;14732;51.074;3.788;2022-12-07T06:52:04;5.70;;;3.17;;
27225;SDS011;14732;51.074;3.788;2022-12-07T06:54:30;4.43;;;3.00;;
27225;SDS011;14732;51.074;3.788;2022-12-07T06:56:56;11.35;;;3.80;;
27225;SDS011;14732;51.074;3.788;2022-12-07T06:59:22;6.82;;;3.58;;
27225;SDS011;14732;51.074;3.788;2022-12-07T07:01:48;7.32;;;3.70;;
27225;SDS011;14732;51.074;3.788;2022-12-07T07:04:13;9.25;;;3.65;;
27225;SDS011;14732;51.074;3.788;2022-12-07T07:06:39;10.48;;;3.70;;
27225;SDS011;14732;51.074;3.788;2022-12-07T07:09:04;8.57;;;3.38;;
27225;SDS011;14732;51.074;3.788;2022-12-07T07:11:30;11.23;;;3.75;;
27225;SDS011;14732;51.074;3.788;2022-12-07T07:13:56;9.38;;;3.75;;
27225;SDS011;14732;51.074;3.788;2022-12-07T07:16:24;9.43;;;3.08;;
27225;SDS011;14732;51.074;3.788;2022-12-07T07:18:49;5.22;;;3.22;;
27225;SDS011;14732;51.074;3.788;2022-12-07T07:21:15;4.97;;;3.40;;
27225;SDS011;14732;51.074;3.788;2022-12-07T07:23:41;7.05;;;3.53;;
27225;SDS011;14732;51.074;3.788;2022-12-07T07:26:06;10.60;;;4.20;;
27225;SDS011;14732;51.074;3.788;2022-12-07T07:28:32;14.50;;;3.95;;
27225;SDS011;14732;51.074;3.788;2022-12-07T07:30:58;12.70;;;4.20;;
27225;SDS011;14732;51.074;3.788;2022-12-07T07:33:23;9.73;;;5.47;;
27225;SDS011;14732;51.074;3.788;2022-12-07T07:35:49;14.27;;;7.57;;
27225;SDS011;14732;51.074;3.788;2022-12-07T07:38:14;15.68;;;5.65;;
27225;SDS011;14732;51.074;3.788;2022-12-07T07:40:40;19.83;;;5.97;;
27225;SDS011;14732;51.074;3.788;2022-12-07T07:43:06;10.25;;;5.30;;
27225;SDS011;14732;51.074;3.788;2022-12-07T07:45:31;8.82;;;4.95;;
27225;SDS011;14732;51.074;3.788;2022-12-07T07:47:57;14.98;;;7.00;;
27225;SDS011;14732;51.074;3.788;2022-12-07T07:50:23;13.25;;;6.00;;
27225;SDS011;14732;51.074;3.788;2022-12-07T07:52:48;10.52;;;4.65;;
27225;SDS011;14732;51.074;3.788;2022-12-07T07:55:14;9.85;;;5.50;;
27225;SDS011;14732;51.074;3.788;2022-12-07T07:57:40;13.20;;;5.13;;
27225;SDS011;14732;51.074;3.788;2022-12-07T08:00:11;19.10;;;5.65;;
27225;SDS011;14732;51.074;3.788;2022-12-07T08:02:39;10.80;;;4.93;;
27225;SDS011;14732;51.074;3.788;2022-12-07T08:05:05;10.55;;;4.57;;
27225;SDS011;14732;51.074;3.788;2022-12-07T08:07:31;11.70;;;4.50;;
27225;SDS011;14732;51.074;3.788;2022-12-07T08:09:57;13.68;;;4.47;;
27225;SDS011;14732;51.074;3.788;2022-12-07T08:12:23;15.82;;;5.00;;
27225;SDS011;14732;51.074;3.788;2022-12-07T08:14:48;12.80;;;4.82;;
27225;SDS011;14732;51.074;3.788;2022-12-07T08:17:14;11.02;;;4.68;;
27225;SDS011;14732;51.074;3.788;2022-12-07T08:19:40;8.00;;;4.32;;
27225;SDS011;14732;51.074;3.788;2022-12-07T08:22:05;6.78;;;4.53;;
27225;SDS011;14732;51.074;3.788;2022-12-07T08:24:34;10.13;;;5.03;;
27225;SDS011;14732;51.074;3.788;2022-12-07T08:27:00;9.15;;;4.78;;
27225;SDS011;14732;51.074;3.788;2022-12-07T08:29:26;18.30;;;6.20;;
27225;SDS011;14732;51.074;3.788;2022-12-07T08:31:52;11.57;;;5.70;;
27225;SDS011;14732;51.074;3.788;2022-12-07T08:34:17;10.13;;;4.90;;
27225;SDS011;14732;51.074;3.788;2022-12-07T08:36:43;12.00;;;6.57;;
27225;SDS011;14732;51.074;3.788;2022-12-07T08:39:09;12.55;;;5.88;;
27225;SDS011;14732;51.074;3.788;2022-12-07T08:41:35;19.38;;;7.10;;
27225;SDS011;14732;51.074;3.788;2022-12-07T08:44:00;11.63;;;6.32;;
27225;SDS011;14732;51.074;3.788;2022-12-07T08:46:28;17.63;;;6.70;;
27225;SDS011;14732;51.074;3.788;2022-12-07T08:49:04;15.65;;;6.10;;
27225;SDS011;14732;51.074;3.788;2022-12-07T08:51:41;13.73;;;6.47;;
27225;SDS011;14732;51.074;3.788;2022-12-07T08:54:09;18.48;;;5.88;;
27225;SDS011;14732;51.074;3.788;2022-12-07T08:56:38;14.40;;;5.57;;
27225;SDS011;14732;51.074;3.788;2022-12-07T08:59:04;12.07;;;4.63;;
27225;SDS011;14732;51.074;3.788;2022-12-07T09:01:31;11.93;;;4.65;;
27225;SDS011;14732;51.074;3.788;2022-12-07T09:03:57;11.25;;;4.45;;
27225;SDS011;14732;51.074;3.788;2022-12-07T09:06:23;10.43;;;3.85;;
27225;SDS011;14732;51.074;3.788;2022-12-07T09:08:50;7.45;;;4.25;;
27225;SDS011;14732;51.074;3.788;2022-12-07T09:11:19;10.35;;;3.95;;
27225;SDS011;14732;51.074;3.788;2022-12-07T09:13:44;10.63;;;4.10;;
27225;SDS011;14732;51.074;3.788;2022-12-07T09:16:10;12.32;;;5.18;;
27225;SDS011;14732;51.074;3.788;2022-12-07T09:18:36;11.77;;;4.65;;
27225;SDS011;14732;51.074;3.788;2022-12-07T09:21:03;9.10;;;4.85;;
27225;SDS011;14732;51.074;3.788;2022-12-07T09:23:28;8.68;;;4.85;;
27225;SDS011;14732;51.074;3.788;2022-12-07T09:25:54;11.95;;;5.00;;
27225;SDS011;14732;51.074;3.788;2022-12-07T09:28:20;11.43;;;4.03;;
27225;SDS011;14732;51.074;3.788;2022-12-07T09:30:49;7.13;;;3.00;;
27225;SDS011;14732;51.074;3.788;2022-12-07T09:33:14;6.60;;;2.60;;
27225;SDS011;14732;51.074;3.788;2022-12-07T09:35:47;8.77;;;2.63;;
27225;SDS011;14732;51.074;3.788;2022-12-07T09:38:14;9.18;;;2.50;;
27225;SDS011;14732;51.074;3.788;2022-12-07T09:40:40;7.82;;;2.90;;
27225;SDS011;14732;51.074;3.788;2022-12-07T09:43:13;11.55;;;3.00;;
27225;SDS011;14732;51.074;3.788;2022-12-07T09:45:43;7.13;;;2.80;;
27225;SDS011;14732;51.074;3.788;2022-12-07T09:48:14;15.00;;;3.60;;
27225;SDS011;14732;51.074;3.788;2022-12-07T09:50:44;5.47;;;2.83;;
27225;SDS011;14732;51.074;3.788;2022-12-07T09:53:13;7.43;;;3.10;;
27225;SDS011;14732;51.074;3.788;2022-12-07T09:55:47;14.43;;;3.38;;
27225;SDS011;14732;51.074;3.788;2022-12-07T09:58:23;11.75;;;3.33;;
27225;SDS011;14732;51.074;3.788;2022-12-07T10:01:05;8.48;;;2.80;;
27225;SDS011;14732;51.074;3.788;2022-12-07T10:03:40;9.95;;;2.80;;
27225;SDS011;14732;51.074;3.788;2022-12-07T10:06:12;7.50;;;2.70;;
27225;SDS011;14732;51.074;3.788;2022-12-07T10:08:38;7.10;;;2.63;;
27225;SDS011;14732;51.074;3.788;2022-12-07T10:11:06;8.43;;;2.65;;
27225;SDS011;14732;51.074;3.788;2022-12-07T10:13:45;8.35;;;2.67;;
27225;SDS011;14732;51.074;3.788;2022-12-07T10:19:22;4.60;;;2.22;;
27225;SDS011;14732;51.074;3.788;2022-12-07T10:24:25;3.50;;;1.88;;
27225;SDS011;14732;51.074;3.788;2022-12-07T10:26:51;7.25;;;2.10;;
27225;SDS011;14732;51.074;3.788;2022-12-07T10:31:54;5.40;;;2.20;;
27225;SDS011;14732;51.074;3.788;2022-12-07T10:34:30;8.55;;;2.78;;
27225;SDS011;14732;51.074;3.788;2022-12-07T10:37:13;8.80;;;2.30;;
27225;SDS011;14732;51.074;3.788;2022-12-07T10:39:45;8.85;;;2.95;;
27225;SDS011;14732;51.074;3.788;2022-12-07T10:42:17;6.13;;;2.53;;
27225;SDS011;14732;51.074;3.788;2022-12-07T10:44:43;7.35;;;3.03;;
27225;SDS011;14732;51.074;3.788;2022-12-07T10:53:16;7.78;;;1.92;;
27225;SDS011;14732;51.074;3.788;2022-12-07T11:01:29;7.82;;;1.95;;
27225;SDS011;14732;51.074;3.788;2022-12-07T11:06:47;4.70;;;1.70;;
27225;SDS011;14732;51.074;3.788;2022-12-07T11:11:54;4.60;;;2.00;;
27225;SDS011;14732;51.074;3.788;2022-12-07T11:14:37;7.63;;;1.83;;
27225;SDS011;14732;51.074;3.788;2022-12-07T11:22:44;7.22;;;2.60;;
27225;SDS011;14732;51.074;3.788;2022-12-07T11:25:31;10.10;;;2.10;;
27225;SDS011;14732;51.074;3.788;2022-12-07T11:31:23;5.60;;;2.28;;
27225;SDS011;14732;51.074;3.788;2022-12-07T11:36:47;6.88;;;1.73;;
27225;SDS011;14732;51.074;3.788;2022-12-07T11:42:05;3.22;;;1.50;;
27225;SDS011;14732;51.074;3.788;2022-12-07T11:47:11;3.60;;;1.73;;
27225;SDS011;14732;51.074;3.788;2022-12-07T11:52:41;6.60;;;2.00;;
27225;SDS011;14732;51.074;3.788;2022-12-07T11:55:19;6.05;;;2.30;;
27225;SDS011;14732;51.074;3.788;2022-12-07T11:58:04;5.28;;;2.28;;
27225;SDS011;14732;51.074;3.788;2022-12-07T12:00:44;5.47;;;1.90;;
27225;SDS011;14732;51.074;3.788;2022-12-07T12:03:15;5.65;;;1.80;;
27225;SDS011;14732;51.074;3.788;2022-12-07T12:05:48;3.85;;;1.10;;
27225;SDS011;14732;51.074;3.788;2022-12-07T12:08:16;4.60;;;1.20;;
27225;SDS011;14732;51.074;3.788;2022-12-07T12:22:36;11.25;;;2.20;;
27225;SDS011;14732;51.074;3.788;2022-12-07T12:25:06;8.95;;;1.92;;
27225;SDS011;14732;51.074;3.788;2022-12-07T12:27:42;8.27;;;1.50;;
27225;SDS011;14732;51.074;3.788;2022-12-07T12:30:30;4.38;;;1.20;;
27225;SDS011;14732;51.074;3.788;2022-12-07T12:33:22;4.53;;;1.13;;
27225;SDS011;14732;51.074;3.788;2022-12-07T12:38:51;4.20;;;1.20;;
27225;SDS011;14732;51.074;3.788;2022-12-07T12:46:59;5.88;;;1.30;;
27225;SDS011;14732;51.074;3.788;2022-12-07T12:49:44;3.13;;;1.40;;
27225;SDS011;14732;51.074;3.788;2022-12-07T12:57:34;7.28;;;1.48;;
27225;SDS011;14732;51.074;3.788;2022-12-07T13:00:15;5.18;;;1.60;;
27225;SDS011;14732;51.074;3.788;2022-12-07T13:05:21;4.65;;;1.70;;
27225;SDS011;14732;51.074;3.788;2022-12-07T13:07:51;5.40;;;1.67;;
27225;SDS011;14732;51.074;3.788;2022-12-07T13:26:23;5.65;;;1.73;;
27225;SDS011;14732;51.074;3.788;2022-12-07T13:29:09;8.50;;;2.05;;
27225;SDS011;14732;51.074;3.788;2022-12-07T13:37:00;5.32;;;1.67;;
27225;SDS011;14732;51.074;3.788;2022-12-07T13:39:47;6.72;;;2.33;;
27225;SDS011;14732;51.074;3.788;2022-12-07T13:42:20;8.90;;;1.80;;
27225;SDS011;14732;51.074;3.788;2022-12-07T13:44:52;7.93;;;2.15;;
27225;SDS011;14732;51.074;3.788;2022-12-07T13:49:59;8.85;;;2.40;;
27225;SDS011;14732;51.074;3.788;2022-12-07T13:52:26;4.63;;;2.17;;
27225;SDS011;14732;51.074;3.788;2022-12-07T13:57:26;10.07;;;2.13;;
27225;SDS011;14732;51.074;3.788;2022-12-07T13:59:53;11.27;;;1.95;;
27225;SDS011;14732;51.074;3.788;2022-12-07T14:04:45;6.75;;;1.30;;
27225;SDS011;14732;51.074;3.788;2022-12-07T14:09:59;3.63;;;1.80;;
27225;SDS011;14732;51.074;3.788;2022-12-07T14:12:27;4.40;;;1.23;;
27225;SDS011;14732;51.074;3.788;2022-12-07T14:14:54;5.20;;;1.23;;
27225;SDS011;14732;51.074;3.788;2022-12-07T14:17:22;4.00;;;1.00;;
27225;SDS011;14732;51.074;3.788;2022-12-07T14:19:53;7.03;;;1.00;;
27225;SDS011;14732;51.074;3.788;2022-12-07T14:25:09;4.18;;;1.70;;
27225;SDS011;14732;51.074;3.788;2022-12-07T14:27:49;3.83;;;1.10;;
27225;SDS011;14732;51.074;3.788;2022-12-07T14:30:18;4.25;;;1.00;;
27225;SDS011;14732;51.074;3.788;2022-12-07T14:32:44;2.97;;;0.98;;
27225;SDS011;14732;51.074;3.788;2022-12-07T14:35:14;4.03;;;1.17;;
27225;SDS011;14732;51.074;3.788;2022-12-07T14:37:42;3.83;;;2.05;;
27225;SDS011;14732;51.074;3.788;2022-12-07T14:40:12;5.28;;;2.78;;
27225;SDS011;14732;51.074;3.788;2022-12-07T14:42:46;5.80;;;2.10;;
27225;SDS011;14732;51.074;3.788;2022-12-07T14:45:18;8.93;;;4.05;;
27225;SDS011;14732;51.074;3.788;2022-12-07T14:47:46;9.23;;;6.95;;
27225;SDS011;14732;51.074;3.788;2022-12-07T14:50:13;6.30;;;2.65;;
27225;SDS011;14732;51.074;3.788;2022-12-07T14:52:40;5.78;;;1.90;;
27225;SDS011;14732;51.074;3.788;2022-12-07T14:55:20;17.08;;;11.10;;
27225;SDS011;14732;51.074;3.788;2022-12-07T14:57:52;46.50;;;32.83;;
27225;SDS011;14732;51.074;3.788;2022-12-07T15:00:19;10.90;;;7.07;;
27225;SDS011;14732;51.074;3.788;2022-12-07T15:02:46;9.77;;;3.28;;
27225;SDS011;14732;51.074;3.788;2022-12-07T15:05:13;4.10;;;1.70;;
27225;SDS011;14732;51.074;3.788;2022-12-07T15:07:39;4.93;;;1.95;;
27225;SDS011;14732;51.074;3.788;2022-12-07T15:10:05;5.40;;;1.40;;
27225;SDS011;14732;51.074;3.788;2022-12-07T15:12:37;7.28;;;3.65;;
27225;SDS011;14732;51.074;3.788;2022-12-07T15:15:03;6.63;;;3.45;;
27225;SDS011;14732;51.074;3.788;2022-12-07T15:17:29;11.30;;;7.05;;
27225;SDS011;14732;51.074;3.788;2022-12-07T15:19:55;6.75;;;2.45;;
27225;SDS011;14732;51.074;3.788;2022-12-07T15:22:20;3.63;;;1.90;;
27225;SDS011;14732;51.074;3.788;2022-12-07T15:24:46;5.00;;;1.80;;
27225;SDS011;14732;51.074;3.788;2022-12-07T15:27:12;4.80;;;2.10;;
27225;SDS011;14732;51.074;3.788;2022-12-07T15:29:37;4.90;;;1.90;;
27225;SDS011;14732;51.074;3.788;2022-12-07T15:32:03;5.47;;;2.72;;
27225;SDS011;14732;51.074;3.788;2022-12-07T15:34:29;3.00;;;2.35;;
27225;SDS011;14732;51.074;3.788;2022-12-07T15:36:56;7.50;;;3.30;;
27225;SDS011;14732;51.074;3.788;2022-12-07T15:39:22;10.50;;;4.95;;
27225;SDS011;14732;51.074;3.788;2022-12-07T15:41:48;9.45;;;4.68;;
27225;SDS011;14732;51.074;3.788;2022-12-07T15:44:14;11.15;;;5.47;;
27225;SDS011;14732;51.074;3.788;2022-12-07T15:46:58;9.93;;;5.28;;
27225;SDS011;14732;51.074;3.788;2022-12-07T15:49:24;6.70;;;4.15;;
27225;SDS011;14732;51.074;3.788;2022-12-07T15:51:50;10.38;;;5.35;;
27225;SDS011;14732;51.074;3.788;2022-12-07T15:54:20;10.05;;;6.07;;
27225;SDS011;14732;51.074;3.788;2022-12-07T15:56:48;13.27;;;5.88;;
27225;SDS011;14732;51.074;3.788;2022-12-07T15:59:14;9.82;;;4.90;;
27225;SDS011;14732;51.074;3.788;2022-12-07T16:01:40;8.32;;;4.82;;
27225;SDS011;14732;51.074;3.788;2022-12-07T16:04:06;11.35;;;5.28;;
27225;SDS011;14732;51.074;3.788;2022-12-07T16:06:32;12.18;;;5.28;;
27225;SDS011;14732;51.074;3.788;2022-12-07T16:08:57;10.50;;;4.88;;
27225;SDS011;14732;51.074;3.788;2022-12-07T16:11:23;11.18;;;5.20;;
27225;SDS011;14732;51.074;3.788;2022-12-07T16:13:49;9.43;;;5.32;;
27225;SDS011;14732;51.074;3.788;2022-12-07T16:16:15;11.52;;;5.07;;
27225;SDS011;14732;51.074;3.788;2022-12-07T16:18:43;9.20;;;5.93;;
27225;SDS011;14732;51.074;3.788;2022-12-07T16:21:10;9.88;;;5.85;;
27225;SDS011;14732;51.074;3.788;2022-12-07T16:23:35;11.30;;;5.93;;
27225;SDS011;14732;51.074;3.788;2022-12-07T16:26:08;14.63;;;5.70;;
27225;SDS011;14732;51.074;3.788;2022-12-07T16:28:34;14.30;;;5.30;;
27225;SDS011;14732;51.074;3.788;2022-12-07T16:31:01;11.57;;;5.20;;
27225;SDS011;14732;51.074;3.788;2022-12-07T16:33:46;16.17;;;6.05;;
27225;SDS011;14732;51.074;3.788;2022-12-07T16:36:14;16.85;;;7.78;;
27225;SDS011;14732;51.074;3.788;2022-12-07T16:38:41;18.67;;;8.73;;
27225;SDS011;14732;51.074;3.788;2022-12-07T16:41:08;18.00;;;8.02;;
27225;SDS011;14732;51.074;3.788;2022-12-07T16:43:34;15.23;;;7.50;;
27225;SDS011;14732;51.074;3.788;2022-12-07T16:46:01;15.80;;;7.35;;
27225;SDS011;14732;51.074;3.788;2022-12-07T16:48:27;17.30;;;7.47;;
27225;SDS011;14732;51.074;3.788;2022-12-07T16:50:53;10.98;;;7.80;;
27225;SDS011;14732;51.074;3.788;2022-12-07T16:53:19;14.57;;;8.75;;
27225;SDS011;14732;51.074;3.788;2022-12-07T16:55:46;15.88;;;9.05;;
27225;SDS011;14732;51.074;3.788;2022-12-07T16:58:12;20.58;;;8.82;;
27225;SDS011;14732;51.074;3.788;2022-12-07T17:00:40;16.08;;;8.57;;
27225;SDS011;14732;51.074;3.788;2022-12-07T17:03:07;17.63;;;8.43;;
27225;SDS011;14732;51.074;3.788;2022-12-07T17:05:37;16.67;;;7.95;;
27225;SDS011;14732;51.074;3.788;2022-12-07T17:08:06;13.00;;;7.63;;
27225;SDS011;14732;51.074;3.788;2022-12-07T17:10:34;13.02;;;7.00;;
27225;SDS011;14732;51.074;3.788;2022-12-07T17:13:01;10.02;;;5.80;;
27225;SDS011;14732;51.074;3.788;2022-12-07T17:15:54;9.82;;;5.40;;
27225;SDS011;14732;51.074;3.788;2022-12-07T17:18:27;12.57;;;5.70;;